createdAt,value
2023-09-28T00:00:39.534Z,98602.97
2023-09-28T00:01:42.622Z,98601.81
2023-09-28T00:02:47.183Z,98602.16
2023-09-28T00:03:50.723Z,98597.84
2023-09-28T00:04:53.909Z,98598.56
2023-09-28T00:05:56.778Z,98602.84
2023-09-28T00:07:00.330Z,98602.06
2023-09-28T00:08:04.033Z,98601.44
2023-09-28T00:09:07.395Z,98601.34
2023-09-28T00:10:15.169Z,98597.75
2023-09-28T00:11:18.095Z,98604.59
2023-09-28T00:12:21.064Z,98596.31
2023-09-28T00:13:23.994Z,98601.97
2023-09-28T00:14:28.029Z,98599.81
2023-09-28T00:15:31.239Z,98597.09
2023-09-28T00:16:34.125Z,98597.56
2023-09-28T00:17:39.739Z,98596.03
2023-09-28T00:18:43.037Z,98596.13
2023-09-28T00:19:45.979Z,98594.16
2023-09-28T00:20:49.297Z,98594.06
2023-09-28T00:21:52.448Z,98592.56
2023-09-28T00:22:58.124Z,98597.66
2023-09-28T00:24:04.286Z,98594.78
2023-09-28T00:25:12.271Z,98595.41
2023-09-28T00:26:18.279Z,98591.00
2023-09-28T00:27:21.570Z,98593.97
2023-09-28T00:28:24.436Z,98587.78
2023-09-28T00:29:27.536Z,98589.75
2023-09-28T00:30:30.677Z,98590.41
2023-09-28T00:31:33.503Z,98592.56
2023-09-28T00:32:37.735Z,98595.97
2023-09-28T00:33:40.973Z,98592.44
2023-09-28T00:34:44.233Z,98584.84
2023-09-28T00:35:47.333Z,98588.22
2023-09-28T00:36:50.273Z,98587.62
2023-09-28T00:37:53.778Z,98584.72
2023-09-28T00:38:56.950Z,98588.75
2023-09-28T00:40:00.324Z,98586.53
2023-09-28T00:41:03.815Z,98591.13
2023-09-28T00:42:06.919Z,98585.44
2023-09-28T00:43:09.811Z,98586.88
2023-09-28T00:44:13.327Z,98586.25
2023-09-28T00:45:16.451Z,98586.09
2023-09-28T00:46:19.887Z,98581.16
2023-09-28T00:47:25.305Z,98585.19
2023-09-28T00:48:29.107Z,98582.13
2023-09-28T00:49:32.092Z,98581.59
2023-09-28T00:50:35.371Z,98577.09
2023-09-28T00:51:40.678Z,98581.50
2023-09-28T00:52:50.433Z,98575.84
2023-09-28T00:53:54.133Z,98571.72
2023-09-28T00:54:58.138Z,98580.59
2023-09-28T00:56:01.875Z,98578.72
2023-09-28T00:57:07.405Z,98574.41
2023-09-28T00:58:13.234Z,98581.22
2023-09-28T00:59:16.478Z,98584.09
2023-09-28T01:00:20.403Z,98582.22
2023-09-28T01:01:27.603Z,98584.91
2023-09-28T01:02:31.302Z,98581.22
2023-09-28T01:03:36.572Z,98579.16
2023-09-28T01:04:40.007Z,98581.16
2023-09-28T01:05:43.639Z,98591.13
2023-09-28T01:06:46.985Z,98585.38
2023-09-28T01:07:50.403Z,98581.69
2023-09-28T01:08:58.282Z,98576.03
2023-09-28T01:10:02.078Z,98576.81
2023-09-28T01:11:08.810Z,98574.75
2023-09-28T01:12:14.029Z,98575.59
2023-09-28T01:13:22.678Z,98579.97
2023-09-28T01:14:26.612Z,98576.91
2023-09-28T01:15:29.856Z,98575.41
2023-09-28T01:16:32.807Z,98572.09
2023-09-28T01:17:36.506Z,98567.13
2023-09-28T01:18:39.741Z,98576.13
2023-09-28T01:19:43.600Z,98568.41
2023-09-28T01:20:48.763Z,98571.72
2023-09-28T01:21:52.740Z,98573.41
2023-09-28T01:22:56.404Z,98565.78
2023-09-28T01:23:59.547Z,98568.56
2023-09-28T01:25:05.169Z,98569.66
2023-09-28T01:26:08.288Z,98564.09
2023-09-28T01:27:12.325Z,98571.00
2023-09-28T01:28:18.882Z,98566.66
2023-09-28T01:29:21.932Z,98572.06
2023-09-28T01:30:25.089Z,98560.81
2023-09-28T01:31:29.077Z,98565.59
2023-09-28T01:32:32.259Z,98567.00
2023-09-28T01:33:35.618Z,98561.25
2023-09-28T01:34:38.573Z,98564.03
2023-09-28T01:35:42.335Z,98560.03
2023-09-28T01:36:45.255Z,98552.91
2023-09-28T01:37:48.174Z,98561.53
2023-09-28T01:39:08.805Z,98562.72
2023-09-28T01:40:14.816Z,98560.47
2023-09-28T01:41:18.374Z,98568.63
2023-09-28T01:42:21.796Z,98558.50
2023-09-28T01:43:25.241Z,98572.44
2023-09-28T01:44:28.615Z,98566.56
2023-09-28T01:45:31.805Z,98568.09
2023-09-28T01:46:35.595Z,98564.41
2023-09-28T01:47:39.703Z,98567.66
2023-09-28T01:48:42.901Z,98570.25
2023-09-28T01:49:46.193Z,98571.94
2023-09-28T01:50:49.636Z,98565.66
2023-09-28T01:51:52.823Z,98568.91
2023-09-28T01:52:56.091Z,98572.41
2023-09-28T01:53:59.744Z,98582.81
2023-09-28T01:55:03.201Z,98570.16
2023-09-28T01:56:06.484Z,98570.06
2023-09-28T01:57:09.736Z,98577.88
2023-09-28T01:58:13.630Z,98571.59
2023-09-28T01:59:17.018Z,98580.47
2023-09-28T02:00:21.665Z,98577.06
2023-09-28T02:01:33.245Z,98575.53
2023-09-28T02:02:37.735Z,98579.56
2023-09-28T02:03:41.047Z,98574.09
2023-09-28T02:04:45.142Z,98579.12
2023-09-28T02:05:50.154Z,98585.44
2023-09-28T02:06:55.085Z,98577.06
2023-09-28T02:07:58.337Z,98572.56
2023-09-28T02:09:01.670Z,98575.19
2023-09-28T02:10:06.175Z,98575.19
2023-09-28T02:11:11.454Z,98575.72
2023-09-28T02:12:15.034Z,98569.50
2023-09-28T02:13:18.248Z,98575.63
2023-09-28T02:14:21.754Z,98570.59
2023-09-28T02:15:25.238Z,98568.44
2023-09-28T02:16:28.592Z,98569.47
2023-09-28T02:17:32.095Z,98571.47
2023-09-28T02:18:35.338Z,98574.25
2023-09-28T02:19:40.684Z,98568.25
2023-09-28T02:20:45.830Z,98568.09
2023-09-28T02:21:49.511Z,98572.53
2023-09-28T02:22:55.785Z,98574.72
2023-09-28T02:24:00.162Z,98575.25
2023-09-28T02:25:04.042Z,98578.66
2023-09-28T02:26:09.570Z,98581.25
2023-09-28T02:27:12.673Z,98582.38
2023-09-28T02:28:16.140Z,98578.25
2023-09-28T02:29:19.303Z,98576.75
2023-09-28T02:30:24.728Z,98579.25
2023-09-28T02:31:30.023Z,98581.47
2023-09-28T02:32:35.024Z,98585.41
2023-09-28T02:33:38.376Z,98577.69
2023-09-28T02:34:41.780Z,98580.09
2023-09-28T02:35:45.125Z,98586.19
2023-09-28T02:36:48.040Z,98586.62
2023-09-28T02:37:53.119Z,98588.47
2023-09-28T02:38:56.333Z,98583.34
2023-09-28T02:39:59.558Z,98585.19
2023-09-28T02:41:03.021Z,98588.50
2023-09-28T02:42:09.286Z,98576.97
2023-09-28T02:43:12.758Z,98593.25
2023-09-28T02:44:15.878Z,98584.81
2023-09-28T02:45:19.314Z,98587.50
2023-09-28T02:46:22.706Z,98588.31
2023-09-28T02:47:26.430Z,98583.56
2023-09-28T02:48:29.438Z,98578.53
2023-09-28T02:49:33.890Z,98579.25
2023-09-28T02:50:36.930Z,98582.56
2023-09-28T02:51:40.156Z,98577.31
2023-09-28T02:52:48.317Z,98580.41
2023-09-28T02:53:52.339Z,98581.97
2023-09-28T02:54:56.081Z,98587.94
2023-09-28T02:55:59.101Z,98582.28
2023-09-28T02:57:02.279Z,98585.66
2023-09-28T02:58:05.841Z,98592.34
2023-09-28T02:59:09.763Z,98578.28
2023-09-28T03:00:29.593Z,98581.56
2023-09-28T03:01:32.899Z,98592.16
2023-09-28T03:02:36.259Z,98588.22
2023-09-28T03:03:39.885Z,98585.97
2023-09-28T03:04:43.180Z,98587.19
2023-09-28T03:05:46.339Z,98589.97
2023-09-28T03:06:53.563Z,98588.09
2023-09-28T03:07:56.979Z,98586.56
2023-09-28T03:09:00.386Z,98589.72
2023-09-28T03:10:06.626Z,98591.78
2023-09-28T03:11:10.343Z,98585.28
2023-09-28T03:12:13.684Z,98586.62
2023-09-28T03:13:17.174Z,98579.22
2023-09-28T03:14:20.668Z,98580.22
2023-09-28T03:15:23.615Z,98584.25
2023-09-28T03:16:27.007Z,98585.56
2023-09-28T03:17:31.046Z,98575.72
2023-09-28T03:18:34.458Z,98584.56
2023-09-28T03:19:37.628Z,98585.91
2023-09-28T03:20:46.210Z,98583.94
2023-09-28T03:21:50.925Z,98586.22
2023-09-28T03:22:53.969Z,98583.66
2023-09-28T03:24:00.763Z,98588.88
2023-09-28T03:25:08.081Z,98590.13
2023-09-28T03:26:11.648Z,98589.19
2023-09-28T03:27:15.121Z,98594.41
2023-09-28T03:28:18.301Z,98583.53
2023-09-28T03:29:21.579Z,98588.16
2023-09-28T03:30:26.485Z,98584.75
2023-09-28T03:31:31.682Z,98591.78
2023-09-28T03:32:36.343Z,98588.28
2023-09-28T03:33:39.434Z,98591.87
2023-09-28T03:34:42.612Z,98594.66
2023-09-28T03:35:45.772Z,98590.22
2023-09-28T03:36:48.719Z,98599.56
2023-09-28T03:37:56.701Z,98596.47
2023-09-28T03:38:59.960Z,98594.53
2023-09-28T03:40:11.383Z,98596.47
2023-09-28T03:41:14.348Z,98588.69
2023-09-28T03:42:17.513Z,98598.63
2023-09-28T03:43:20.693Z,98595.44
2023-09-28T03:44:23.708Z,98590.91
2023-09-28T03:45:26.833Z,98596.94
2023-09-28T03:46:29.827Z,98597.34
2023-09-28T03:47:33.675Z,98599.31
2023-09-28T03:48:37.306Z,98601.94
2023-09-28T03:49:40.300Z,98592.81
2023-09-28T03:50:44.623Z,98602.47
2023-09-28T03:51:47.388Z,98603.78
2023-09-28T03:52:51.040Z,98606.16
2023-09-28T03:53:54.658Z,98594.88
2023-09-28T03:54:58.265Z,98596.22
2023-09-28T03:56:01.668Z,98590.75
2023-09-28T03:57:04.992Z,98599.47
2023-09-28T03:58:08.338Z,98599.25
2023-09-28T03:59:11.717Z,98601.53
2023-09-28T04:00:17.078Z,98596.47
2023-09-28T04:01:20.183Z,98595.53
2023-09-28T04:02:28.957Z,98595.03
2023-09-28T04:03:31.965Z,98597.72
2023-09-28T04:04:35.001Z,98598.31
2023-09-28T04:05:38.309Z,98597.47
2023-09-28T04:06:41.601Z,98598.31
2023-09-28T04:07:44.981Z,98604.34
2023-09-28T04:08:48.075Z,98608.25
2023-09-28T04:09:51.348Z,98607.72
2023-09-28T04:10:56.580Z,98601.03
2023-09-28T04:12:00.401Z,98604.28
2023-09-28T04:13:03.759Z,98603.47
2023-09-28T04:14:09.528Z,98599.78
2023-09-28T04:15:12.920Z,98604.03
2023-09-28T04:16:16.174Z,98609.34
2023-09-28T04:17:19.466Z,98601.50
2023-09-28T04:18:22.926Z,98605.00
2023-09-28T04:19:26.214Z,98609.72
2023-09-28T04:20:29.556Z,98608.78
2023-09-28T04:21:32.861Z,98607.34
2023-09-28T04:22:36.336Z,98612.16
2023-09-28T04:23:39.508Z,98614.31
2023-09-28T04:24:42.713Z,98609.50
2023-09-28T04:25:46.077Z,98611.44
2023-09-28T04:26:49.014Z,98616.03
2023-09-28T04:27:52.423Z,98618.91
2023-09-28T04:28:56.204Z,98615.03
2023-09-28T04:29:59.298Z,98611.44
2023-09-28T04:31:02.462Z,98625.41
2023-09-28T04:32:05.846Z,98612.88
2023-09-28T04:33:09.215Z,98614.03
2023-09-28T04:34:14.550Z,98620.81
2023-09-28T04:35:17.877Z,98621.28
2023-09-28T04:36:21.091Z,98612.97
2023-09-28T04:37:24.991Z,98617.31
2023-09-28T04:38:28.376Z,98622.16
2023-09-28T04:39:31.660Z,98618.53
2023-09-28T04:40:34.680Z,98620.09
2023-09-28T04:41:39.262Z,98616.97
2023-09-28T04:42:42.332Z,98622.00
2023-09-28T04:43:45.586Z,98619.53
2023-09-28T04:44:48.897Z,98619.91
2023-09-28T04:45:52.113Z,98626.66
2023-09-28T04:46:55.508Z,98619.06
2023-09-28T04:47:58.941Z,98622.56
2023-09-28T04:49:02.931Z,98621.63
2023-09-28T04:50:06.536Z,98620.38
2023-09-28T04:51:09.796Z,98620.91
2023-09-28T04:52:13.430Z,98616.78
2023-09-28T04:53:17.777Z,98618.72
2023-09-28T04:54:21.624Z,98618.50
2023-09-28T04:55:25.255Z,98619.69
2023-09-28T04:56:28.269Z,98615.84
2023-09-28T04:57:32.490Z,98619.22
2023-09-28T04:58:35.825Z,98622.22
2023-09-28T04:59:40.296Z,98618.62
2023-09-28T05:00:43.646Z,98621.03
2023-09-28T05:01:47.137Z,98621.37
2023-09-28T05:02:50.072Z,98627.06
2023-09-28T05:03:54.898Z,98623.81
2023-09-28T05:04:58.084Z,98630.31
2023-09-28T05:06:01.515Z,98627.91
2023-09-28T05:07:05.833Z,98622.03
2023-09-28T05:08:11.375Z,98629.84
2023-09-28T05:09:14.836Z,98628.41
2023-09-28T05:10:17.837Z,98630.22
2023-09-28T05:11:21.025Z,98630.22
2023-09-28T05:12:24.271Z,98636.94
2023-09-28T05:13:33.853Z,98630.59
2023-09-28T05:14:37.357Z,98633.25
2023-09-28T05:15:40.586Z,98635.03
2023-09-28T05:16:44.363Z,98632.03
2023-09-28T05:17:47.270Z,98631.78
2023-09-28T05:18:50.511Z,98626.59
2023-09-28T05:19:53.428Z,98630.34
2023-09-28T05:20:56.592Z,98625.16
2023-09-28T05:22:00.037Z,98634.69
2023-09-28T05:23:03.289Z,98628.44
2023-09-28T05:24:06.676Z,98637.31
2023-09-28T05:25:09.649Z,98635.16
2023-09-28T05:26:12.923Z,98637.31
2023-09-28T05:27:15.835Z,98639.84
2023-09-28T05:28:18.934Z,98641.75
2023-09-28T05:29:22.225Z,98643.09
2023-09-28T05:30:25.389Z,98638.03
2023-09-28T05:31:28.885Z,98656.06
2023-09-28T05:32:32.643Z,98652.59
2023-09-28T05:33:36.030Z,98659.09
2023-09-28T05:34:39.190Z,98653.44
2023-09-28T05:35:42.577Z,98650.31
2023-09-28T05:36:46.151Z,98649.59
2023-09-28T05:37:49.972Z,98657.19
2023-09-28T05:38:53.246Z,98651.28
2023-09-28T05:39:56.560Z,98658.72
2023-09-28T05:40:59.725Z,98655.84
2023-09-28T05:42:03.174Z,98657.03
2023-09-28T05:43:06.329Z,98659.69
2023-09-28T05:44:11.967Z,98660.41
2023-09-28T05:45:17.153Z,98659.81
2023-09-28T05:46:20.596Z,98656.94
2023-09-28T05:47:23.982Z,98661.59
2023-09-28T05:48:27.026Z,98665.59
2023-09-28T05:49:31.254Z,98662.09
2023-09-28T05:50:35.069Z,98657.88
2023-09-28T05:51:38.333Z,98662.56
2023-09-28T05:52:41.765Z,98652.22
2023-09-28T05:53:50.713Z,98650.78
2023-09-28T05:54:55.029Z,98651.37
2023-09-28T05:55:58.294Z,98648.47
2023-09-28T05:57:01.564Z,98649.09
2023-09-28T05:58:04.983Z,98649.22
2023-09-28T05:59:08.782Z,98649.44
2023-09-28T06:00:12.927Z,98654.00
2023-09-28T06:01:19.540Z,98657.38
2023-09-28T06:02:24.339Z,98662.56
2023-09-28T06:03:28.325Z,98658.72
2023-09-28T06:04:31.569Z,98660.66
2023-09-28T06:05:34.794Z,98667.63
2023-09-28T06:06:37.748Z,98666.28
2023-09-28T06:07:40.730Z,98671.47
2023-09-28T06:08:45.498Z,98672.28
2023-09-28T06:09:48.817Z,98674.84
2023-09-28T06:11:06.595Z,98663.50
2023-09-28T06:12:13.698Z,98682.00
2023-09-28T06:13:17.269Z,98677.34
2023-09-28T06:14:21.215Z,98671.22
2023-09-28T06:15:24.595Z,98675.31
2023-09-28T06:16:28.009Z,98671.94
2023-09-28T06:17:31.939Z,98683.97
2023-09-28T06:18:35.075Z,98678.69
2023-09-28T06:19:51.546Z,98670.16
2023-09-28T06:21:02.226Z,98676.78
2023-09-28T06:22:10.020Z,98677.75
2023-09-28T06:23:13.569Z,98669.22
2023-09-28T06:24:16.557Z,98676.31
2023-09-28T06:25:19.847Z,98680.66
2023-09-28T06:26:39.081Z,98673.53
2023-09-28T06:27:45.986Z,98674.97
2023-09-28T06:28:48.924Z,98671.97
2023-09-28T06:29:54.785Z,98675.09
2023-09-28T06:31:00.515Z,98674.97
2023-09-28T06:32:04.799Z,98679.41
2023-09-28T06:33:07.704Z,98676.44
2023-09-28T06:34:11.271Z,98671.00
2023-09-28T06:35:14.501Z,98676.28
2023-09-28T06:36:30.237Z,98682.91
2023-09-28T06:37:44.440Z,98679.62
2023-09-28T06:38:48.678Z,98683.69
2023-09-28T06:39:51.990Z,98684.78
2023-09-28T06:40:56.311Z,98684.63
2023-09-28T06:42:12.436Z,98682.78
2023-09-28T06:43:24.216Z,98686.75
2023-09-28T06:44:28.283Z,98688.75
2023-09-28T06:45:31.962Z,98688.53
2023-09-28T06:46:35.559Z,98682.87
2023-09-28T06:47:52.898Z,98688.53
2023-09-28T06:49:00.892Z,98687.41
2023-09-28T06:50:06.193Z,98687.38
2023-09-28T06:51:09.483Z,98682.63
2023-09-28T06:52:12.612Z,98685.88
2023-09-28T06:53:17.949Z,98688.59
2023-09-28T06:54:22.112Z,98688.31
2023-09-28T06:55:25.504Z,98683.91
2023-09-28T06:56:28.597Z,98685.69
2023-09-28T06:57:31.945Z,98686.38
2023-09-28T06:58:35.521Z,98682.09
2023-09-28T06:59:38.999Z,98690.50
2023-09-28T07:00:46.072Z,98686.62
2023-09-28T07:01:49.126Z,98689.22
2023-09-28T07:02:52.800Z,98685.31
2023-09-28T07:03:56.063Z,98687.06
2023-09-28T07:04:59.593Z,98692.31
2023-09-28T07:06:02.984Z,98685.94
2023-09-28T07:07:07.821Z,98693.25
2023-09-28T07:08:13.940Z,98688.63
2023-09-28T07:09:17.432Z,98698.50
2023-09-28T07:10:20.658Z,98691.00
2023-09-28T07:11:24.421Z,98698.50
2023-09-28T07:12:27.610Z,98694.38
2023-09-28T07:13:30.569Z,98699.41
2023-09-28T07:14:33.894Z,98705.91
2023-09-28T07:15:43.766Z,98700.34
2023-09-28T07:16:46.781Z,98695.22
2023-09-28T07:17:49.970Z,98705.06
2023-09-28T07:18:53.493Z,98705.63
2023-09-28T07:19:58.446Z,98713.97
2023-09-28T07:21:01.963Z,98700.03
2023-09-28T07:22:04.877Z,98702.81
2023-09-28T07:23:08.753Z,98703.72
2023-09-28T07:24:19.020Z,98711.44
2023-09-28T07:25:22.730Z,98707.00
2023-09-28T07:26:25.911Z,98704.22
2023-09-28T07:27:32.955Z,98701.53
2023-09-28T07:28:36.092Z,98705.44
2023-09-28T07:29:39.648Z,98710.03
2023-09-28T07:30:42.842Z,98702.94
2023-09-28T07:31:46.115Z,98707.16
2023-09-28T07:32:49.661Z,98712.91
2023-09-28T07:33:53.006Z,98714.84
2023-09-28T07:34:56.649Z,98711.72
2023-09-28T07:35:59.992Z,98711.06
2023-09-28T07:37:05.129Z,98715.41
2023-09-28T07:38:08.359Z,98715.34
2023-09-28T07:39:11.514Z,98715.91
2023-09-28T07:40:19.284Z,98715.47
2023-09-28T07:41:25.134Z,98712.06
2023-09-28T07:42:28.769Z,98715.66
2023-09-28T07:43:31.716Z,98720.34
2023-09-28T07:44:34.884Z,98722.50
2023-09-28T07:45:38.690Z,98722.59
2023-09-28T07:46:43.079Z,98717.91
2023-09-28T07:47:46.553Z,98727.19
2023-09-28T07:48:49.839Z,98722.06
2023-09-28T07:49:56.091Z,98719.56
2023-09-28T07:50:59.697Z,98715.94
2023-09-28T07:52:03.927Z,98720.28
2023-09-28T07:53:07.822Z,98726.81
2023-09-28T07:54:11.174Z,98730.06
2023-09-28T07:55:14.968Z,98718.28
2023-09-28T07:56:19.982Z,98722.06
2023-09-28T07:57:23.675Z,98720.81
2023-09-28T07:58:28.059Z,98724.56
2023-09-28T07:59:33.362Z,98709.53
2023-09-28T08:00:38.248Z,98714.09
2023-09-28T08:01:42.843Z,98727.66
2023-09-28T08:02:45.766Z,98724.50
2023-09-28T08:03:49.100Z,98722.91
2023-09-28T08:04:54.668Z,98728.19
2023-09-28T08:05:58.208Z,98719.72
2023-09-28T08:07:01.809Z,98723.47
2023-09-28T08:08:14.546Z,98716.09
2023-09-28T08:09:20.589Z,98722.44
2023-09-28T08:10:24.189Z,98724.69
2023-09-28T08:11:27.443Z,98725.75
2023-09-28T08:12:30.870Z,98722.16
2023-09-28T08:13:34.339Z,98722.97
2023-09-28T08:14:38.113Z,98721.13
2023-09-28T08:15:42.317Z,98722.00
2023-09-28T08:16:50.222Z,98717.84
2023-09-28T08:17:53.548Z,98719.56
2023-09-28T08:18:56.864Z,98719.81
2023-09-28T08:20:00.639Z,98725.53
2023-09-28T08:21:10.503Z,98722.91
2023-09-28T08:22:14.500Z,98723.28
2023-09-28T08:23:18.061Z,98725.59
2023-09-28T08:24:21.919Z,98727.25
2023-09-28T08:25:25.578Z,98719.25
2023-09-28T08:26:28.976Z,98717.88
2023-09-28T08:27:33.171Z,98728.78
2023-09-28T08:28:36.150Z,98727.50
2023-09-28T08:29:39.500Z,98731.78
2023-09-28T08:30:43.195Z,98729.69
2023-09-28T08:31:46.250Z,98725.78
2023-09-28T08:32:49.734Z,98730.16
2023-09-28T08:33:53.877Z,98724.88
2023-09-28T08:34:57.532Z,98732.84
2023-09-28T08:36:00.824Z,98728.53
2023-09-28T08:37:04.761Z,98732.03
2023-09-28T08:38:08.000Z,98732.91
2023-09-28T08:39:11.610Z,98727.59
2023-09-28T08:40:14.682Z,98728.31
2023-09-28T08:41:39.788Z,98732.19
2023-09-28T08:42:47.592Z,98726.78
2023-09-28T08:44:04.988Z,98729.59
2023-09-28T08:45:10.497Z,98729.59
2023-09-28T08:46:15.798Z,98725.47
2023-09-28T08:47:19.911Z,98729.22
2023-09-28T08:48:27.825Z,98724.53
2023-09-28T08:49:30.838Z,98720.28
2023-09-28T08:50:40.594Z,98725.28
2023-09-28T08:51:45.814Z,98726.84
2023-09-28T08:52:50.161Z,98719.25
2023-09-28T08:53:54.657Z,98727.87
2023-09-28T08:54:58.588Z,98726.97
2023-09-28T08:56:02.372Z,98720.75
2023-09-28T08:57:09.600Z,98722.22
2023-09-28T08:58:14.297Z,98725.97
2023-09-28T08:59:18.613Z,98718.41
2023-09-28T09:00:25.184Z,98724.78
2023-09-28T09:01:29.784Z,98727.25
2023-09-28T09:02:33.172Z,98716.56
2023-09-28T09:03:36.554Z,98717.06
2023-09-28T09:04:40.110Z,98726.91
2023-09-28T09:05:44.648Z,98719.50
2023-09-28T09:06:48.818Z,98719.06
2023-09-28T09:07:53.679Z,98717.69
2023-09-28T09:09:02.714Z,98709.94
2023-09-28T09:10:08.040Z,98714.16
2023-09-28T09:11:15.723Z,98708.78
2023-09-28T09:12:19.335Z,98708.06
2023-09-28T09:13:23.410Z,98708.41
2023-09-28T09:14:30.357Z,98708.56
2023-09-28T09:15:34.514Z,98718.41
2023-09-28T09:16:37.978Z,98712.25
2023-09-28T09:17:41.442Z,98706.37
2023-09-28T09:18:49.609Z,98708.69
2023-09-28T09:19:56.160Z,98714.44
2023-09-28T09:21:00.580Z,98710.38
2023-09-28T09:22:08.490Z,98722.66
2023-09-28T09:23:16.811Z,98710.72
2023-09-28T09:24:20.397Z,98720.09
2023-09-28T09:25:23.460Z,98714.63
2023-09-28T09:26:27.819Z,98718.28
2023-09-28T09:27:32.818Z,98713.94
2023-09-28T09:28:36.225Z,98711.22
2023-09-28T09:29:40.451Z,98707.75
2023-09-28T09:30:43.430Z,98711.16
2023-09-28T09:31:49.779Z,98713.19
2023-09-28T09:32:53.272Z,98714.69
2023-09-28T09:33:57.461Z,98717.31
2023-09-28T09:35:01.537Z,98718.09
2023-09-28T09:36:06.421Z,98718.91
2023-09-28T09:37:12.884Z,98717.00
2023-09-28T09:38:16.365Z,98714.63
2023-09-28T09:39:28.183Z,98721.63
2023-09-28T09:40:32.554Z,98719.34
2023-09-28T09:41:46.290Z,98714.34
2023-09-28T09:42:49.756Z,98713.63
2023-09-28T09:43:53.475Z,98721.37
2023-09-28T09:44:57.029Z,98714.47
2023-09-28T09:46:00.481Z,98719.94
2023-09-28T09:47:03.910Z,98716.72
2023-09-28T09:48:08.365Z,98717.66
2023-09-28T09:49:12.463Z,98717.03
2023-09-28T09:50:17.888Z,98717.81
2023-09-28T09:51:21.440Z,98710.72
2023-09-28T09:52:27.584Z,98714.44
2023-09-28T09:53:32.995Z,98716.78
2023-09-28T09:54:38.259Z,98716.75
2023-09-28T09:55:50.033Z,98711.84
2023-09-28T09:56:57.983Z,98723.56
2023-09-28T09:58:04.918Z,98715.28
2023-09-28T09:59:09.429Z,98716.69
2023-09-28T10:00:17.631Z,98725.22
2023-09-28T10:01:21.566Z,98714.13
2023-09-28T10:02:29.982Z,98714.88
2023-09-28T10:03:33.966Z,98713.66
2023-09-28T10:04:37.159Z,98714.47
2023-09-28T10:05:41.698Z,98710.31
2023-09-28T10:06:52.868Z,98705.69
2023-09-28T10:07:58.908Z,98716.38
2023-09-28T10:09:03.392Z,98712.06
2023-09-28T10:10:07.602Z,98715.44
2023-09-28T10:11:12.321Z,98717.53
2023-09-28T10:12:16.686Z,98713.31
2023-09-28T10:13:22.692Z,98711.59
2023-09-28T10:14:27.519Z,98712.25
2023-09-28T10:15:32.154Z,98712.50
2023-09-28T10:16:39.725Z,98707.59
2023-09-28T10:17:43.197Z,98707.09
2023-09-28T10:18:48.684Z,98711.25
2023-09-28T10:19:51.804Z,98709.00
2023-09-28T10:20:55.091Z,98709.72
2023-09-28T10:22:00.250Z,98707.72
2023-09-28T10:23:14.862Z,98705.69
2023-09-28T10:24:22.118Z,98715.47
2023-09-28T10:25:25.361Z,98715.59
2023-09-28T10:26:32.714Z,98716.38
2023-09-28T10:27:38.009Z,98712.91
2023-09-28T10:29:07.292Z,98715.16
2023-09-28T10:30:21.370Z,98704.59
2023-09-28T10:31:24.392Z,98712.94
2023-09-28T10:32:31.604Z,98707.41
2023-09-28T10:33:34.717Z,98708.84
2023-09-28T10:34:38.375Z,98716.09
2023-09-28T10:35:41.805Z,98708.47
2023-09-28T10:36:45.232Z,98707.81
2023-09-28T10:38:23.506Z,98706.25
2023-09-28T10:39:26.777Z,98707.72
2023-09-28T10:40:48.524Z,98710.00
2023-09-28T10:41:53.844Z,98708.62
2023-09-28T10:43:11.150Z,98712.22
2023-09-28T10:44:19.660Z,98710.91
2023-09-28T10:45:28.685Z,98706.66
2023-09-28T10:46:31.924Z,98706.66
2023-09-28T10:47:37.660Z,98711.09
2023-09-28T10:48:47.155Z,98702.72
2023-09-28T10:50:00.724Z,98705.59
2023-09-28T10:51:10.097Z,98707.09
2023-09-28T10:52:13.189Z,98703.09
2023-09-28T10:53:16.572Z,98703.34
2023-09-28T10:54:20.942Z,98703.38
2023-09-28T10:55:24.232Z,98704.72
2023-09-28T10:56:31.875Z,98706.44
2023-09-28T10:57:40.934Z,98703.63
2023-09-28T10:58:44.436Z,98706.41
2023-09-28T10:59:49.500Z,98703.44
2023-09-28T11:00:52.510Z,98707.53
2023-09-28T11:01:55.799Z,98706.16
2023-09-28T11:03:00.227Z,98700.59
2023-09-28T11:04:05.509Z,98698.50
2023-09-28T11:05:10.449Z,98701.88
2023-09-28T11:06:14.540Z,98697.78
2023-09-28T11:07:17.994Z,98702.19
2023-09-28T11:08:23.474Z,98699.47
2023-09-28T11:09:30.596Z,98705.28
2023-09-28T11:10:33.881Z,98696.09
2023-09-28T11:11:40.577Z,98699.75
2023-09-28T11:12:44.119Z,98698.50
2023-09-28T11:13:47.210Z,98697.09
2023-09-28T11:14:50.706Z,98690.75
2023-09-28T11:15:55.289Z,98692.75
2023-09-28T11:16:58.981Z,98695.53
2023-09-28T11:18:02.364Z,98691.22
2023-09-28T11:19:06.013Z,98694.69
2023-09-28T11:20:12.749Z,98693.34
2023-09-28T11:21:17.358Z,98691.25
2023-09-28T11:22:20.641Z,98693.53
2023-09-28T11:23:24.650Z,98691.59
2023-09-28T11:24:28.163Z,98685.19
2023-09-28T11:25:44.681Z,98690.00
2023-09-28T11:26:49.604Z,98692.72
2023-09-28T11:27:52.992Z,98692.16
2023-09-28T11:28:57.873Z,98685.03
2023-09-28T11:30:03.892Z,98689.97
2023-09-28T11:31:10.126Z,98685.00
2023-09-28T11:32:13.699Z,98685.94
2023-09-28T11:33:17.618Z,98685.41
2023-09-28T11:34:37.264Z,98686.25
2023-09-28T11:35:41.084Z,98682.78
2023-09-28T11:36:44.524Z,98677.75
2023-09-28T11:37:47.501Z,98677.66
2023-09-28T11:38:54.005Z,98674.66
2023-09-28T11:39:57.487Z,98673.28
2023-09-28T11:41:04.511Z,98678.34
2023-09-28T11:42:08.959Z,98672.09
2023-09-28T11:43:13.158Z,98673.56
2023-09-28T11:44:21.577Z,98673.53
2023-09-28T11:45:35.070Z,98673.72
2023-09-28T11:46:39.461Z,98674.44
2023-09-28T11:47:42.829Z,98670.91
2023-09-28T11:48:46.142Z,98674.37
2023-09-28T11:49:50.257Z,98676.31
2023-09-28T11:50:54.510Z,98671.19
2023-09-28T11:51:58.276Z,98680.81
2023-09-28T11:53:01.429Z,98670.16
2023-09-28T11:54:14.105Z,98669.53
2023-09-28T11:55:17.619Z,98669.78
2023-09-28T11:56:20.976Z,98665.63
2023-09-28T11:57:24.049Z,98670.66
2023-09-28T11:58:27.398Z,98665.69
2023-09-28T11:59:30.701Z,98664.28
2023-09-28T12:00:33.969Z,98667.00
2023-09-28T12:01:37.766Z,98662.63
2023-09-28T12:02:41.122Z,98664.84
2023-09-28T12:03:46.693Z,98660.63
2023-09-28T12:04:50.094Z,98662.19
2023-09-28T12:05:53.673Z,98662.28
2023-09-28T12:06:56.731Z,98667.97
2023-09-28T12:08:00.161Z,98658.81
2023-09-28T12:09:03.984Z,98660.94
2023-09-28T12:10:16.037Z,98656.69
2023-09-28T12:11:19.092Z,98661.50
2023-09-28T12:12:22.350Z,98659.81
2023-09-28T12:13:27.928Z,98657.56
2023-09-28T12:14:31.293Z,98666.59
2023-09-28T12:15:35.140Z,98662.38
2023-09-28T12:16:39.003Z,98658.87
2023-09-28T12:17:43.466Z,98656.81
2023-09-28T12:18:46.458Z,98663.91
2023-09-28T12:19:49.883Z,98660.97
2023-09-28T12:20:53.342Z,98660.22
2023-09-28T12:21:56.537Z,98655.94
2023-09-28T12:23:01.468Z,98660.88
2023-09-28T12:24:07.512Z,98659.59
2023-09-28T12:25:11.632Z,98656.06
2023-09-28T12:26:14.914Z,98658.31
2023-09-28T12:27:19.580Z,98660.37
2023-09-28T12:28:25.738Z,98655.22
2023-09-28T12:29:29.689Z,98658.59
2023-09-28T12:30:33.429Z,98650.22
2023-09-28T12:31:36.970Z,98657.31
2023-09-28T12:32:40.358Z,98657.34
2023-09-28T12:33:44.615Z,98659.44
2023-09-28T12:34:50.509Z,98657.97
2023-09-28T12:35:55.347Z,98655.03
2023-09-28T12:36:58.880Z,98657.00
2023-09-28T12:38:05.641Z,98658.38
2023-09-28T12:39:11.901Z,98654.16
2023-09-28T12:40:15.435Z,98655.62